Time;durP1;ratioP1;P1;durP2;ratioP2;P2;SDS_P1;SDS_P2;PMS_P1;PMS_P2;Temp;Humidity;BMP_temperature;BMP_pressure;BME280_temperature;BME280_humidity;BME280_pressure;Samples;Min_cycle;Max_cycle;Signal;HPM_P1;HPM_P2
2022/08/16 00:01:10;0.00;0.00;0.62;0.00;0.00;0.62;8.33;7.53;;;27.90;43.00;;;;;;2265296;61;20721;-64
2022/08/16 00:03:55;0.00;0.00;0.62;0.00;0.00;0.62;8.17;7.20;;;27.90;43.00;;;;;;2265921;61;20400;-65
2022/08/16 00:06:41;0.00;0.00;0.62;0.00;0.00;0.62;8.00;7.20;;;28.00;43.00;;;;;;2265100;61;20433;-65
2022/08/16 00:09:26;0.00;0.00;0.62;0.00;0.00;0.62;8.23;7.43;;;28.00;43.00;;;;;;2265507;61;20349;-64
2022/08/16 00:12:12;0.00;0.00;0.62;0.00;0.00;0.62;7.97;7.27;;;28.00;42.90;;;;;;2265496;61;20400;-63
2022/08/16 00:15:00;0.00;0.00;0.62;0.00;0.00;0.62;7.77;7.00;;;28.00;42.80;;;;;;2265457;61;20361;-65
2022/08/16 00:17:46;0.00;0.00;0.62;0.00;0.00;0.62;7.43;6.80;;;28.00;42.70;;;;;;2265733;61;20423;-63
2022/08/16 00:20:31;0.00;0.00;0.62;0.00;0.00;0.62;7.60;6.90;;;28.00;42.60;;;;;;2265649;61;20365;-65
2022/08/16 00:23:16;0.00;0.00;0.62;0.00;0.00;0.62;8.90;7.70;;;28.00;42.50;;;;;;2265101;61;20705;-64
2022/08/16 00:26:01;0.00;0.00;0.62;0.00;0.00;0.62;7.57;6.60;;;28.00;42.40;;;;;;2265775;61;20392;-64
2022/08/16 00:28:48;0.00;0.00;0.62;0.00;0.00;0.62;8.70;7.90;;;28.00;42.20;;;;;;2265559;61;20605;-64
2022/08/16 00:31:34;0.00;0.00;0.62;0.00;0.00;0.62;10.07;7.57;;;28.10;42.10;;;;;;2265382;61;20450;-65
2022/08/16 00:34:20;0.00;0.00;0.62;0.00;0.00;0.62;7.30;6.60;;;28.10;42.00;;;;;;2265546;61;20622;-63
2022/08/16 00:37:05;0.00;0.00;0.62;0.00;0.00;0.62;8.70;7.27;;;28.10;42.00;;;;;;2265330;61;20376;-65
2022/08/16 00:39:51;0.00;0.00;0.62;0.00;0.00;0.62;9.40;7.60;;;28.10;42.00;;;;;;2265383;61;20388;-65
2022/08/16 00:42:36;0.00;0.00;0.62;0.00;0.00;0.62;7.93;7.13;;;28.10;41.80;;;;;;2265142;61;20757;-64
2022/08/16 00:45:33;0.00;0.00;0.62;0.00;0.00;0.62;7.20;6.50;;;28.10;41.70;;;;;;2264497;61;20361;-62
2022/08/16 00:48:18;0.00;0.00;0.62;0.00;0.00;0.62;7.80;5.97;;;28.10;41.70;;;;;;2265621;61;20349;-65
2022/08/16 00:51:04;0.00;0.00;0.62;0.00;0.00;0.62;7.43;6.73;;;28.10;41.70;;;;;;2265387;61;20403;-64
2022/08/16 00:53:52;0.00;0.00;0.62;0.00;0.00;0.62;8.87;6.63;;;28.10;41.70;;;;;;2265374;61;20364;-64
2022/08/16 00:56:41;0.00;0.00;0.62;0.00;0.00;0.62;6.90;5.97;;;28.10;41.80;;;;;;2265077;61;20364;-66
2022/08/16 00:59:30;0.00;0.00;0.62;0.00;0.00;0.62;7.07;6.37;;;28.10;41.80;;;;;;2265308;61;20373;-67
2022/08/16 01:02:17;0.00;0.00;0.62;0.00;0.00;0.62;8.17;6.80;;;28.10;41.80;;;;;;2266606;61;20456;-64
2022/08/16 01:05:03;0.00;0.00;0.62;0.00;0.00;0.62;7.57;6.87;;;28.20;41.80;;;;;;2266225;61;20368;-62
2022/08/16 01:07:48;0.00;0.00;0.62;0.00;0.00;0.62;7.10;6.50;;;28.20;41.70;;;;;;2265694;61;20400;-63
2022/08/16 01:10:34;0.00;0.00;0.62;0.00;0.00;0.62;8.07;7.23;;;28.20;41.60;;;;;;2266520;61;20384;-64
2022/08/16 01:13:22;0.00;0.00;0.62;0.00;0.00;0.62;8.23;7.33;;;28.20;41.50;;;;;;2265365;61;20601;-63
2022/08/16 01:16:12;0.00;0.00;0.62;0.00;0.00;0.62;7.63;6.80;;;28.20;41.40;;;;;;2266135;61;20357;-63
2022/08/16 01:19:02;0.00;0.00;0.62;0.00;0.00;0.62;7.80;7.00;;;28.20;41.40;;;;;;2266124;61;20456;-63
2022/08/16 01:21:54;0.00;0.00;0.62;0.00;0.00;0.62;8.23;7.30;;;28.20;41.30;;;;;;2265238;61;20404;-64
2022/08/16 01:24:45;0.00;0.00;0.62;0.00;0.00;0.62;8.60;7.80;;;28.10;41.90;;;;;;2266534;61;20396;-64
2022/08/16 01:27:35;0.00;0.00;0.62;0.00;0.00;0.62;8.97;7.87;;;28.10;41.20;;;;;;2265321;61;20371;-63
2022/08/16 01:30:24;0.00;0.00;0.62;0.00;0.00;0.62;9.90;7.50;;;28.20;41.20;;;;;;2265314;61;20424;-62
2022/08/16 01:33:11;0.00;0.00;0.62;0.00;0.00;0.62;7.87;7.17;;;28.20;41.10;;;;;;2265615;61;20754;-63
2022/08/16 01:36:01;0.00;0.00;0.62;0.00;0.00;0.62;7.53;6.83;;;28.20;41.00;;;;;;2265341;61;20352;-65
2022/08/16 01:38:48;0.00;0.00;0.62;0.00;0.00;0.62;7.63;6.87;;;28.10;40.80;;;;;;2265838;61;20669;-66
2022/08/16 01:41:34;0.00;0.00;0.62;0.00;0.00;0.62;8.70;7.80;;;28.10;40.80;;;;;;2265848;61;20725;-65
2022/08/16 01:44:21;0.00;0.00;0.62;0.00;0.00;0.62;7.00;6.30;;;28.10;40.80;;;;;;2265183;61;20688;-66
2022/08/16 01:47:07;0.00;0.00;0.62;0.00;0.00;0.62;8.20;7.37;;;28.00;40.70;;;;;;2266237;61;20408;-65
2022/08/16 01:49:52;0.00;0.00;0.62;0.00;0.00;0.62;8.40;7.60;;;28.00;40.60;;;;;;2266134;61;20395;-64
2022/08/16 01:52:38;0.00;0.00;0.62;0.00;0.00;0.62;8.23;7.50;;;28.00;40.60;;;;;;2265161;61;20408;-64
2022/08/16 01:55:35;0.00;0.00;0.62;0.00;0.00;0.62;9.67;7.33;;;28.00;40.60;;;;;;2265388;61;20381;-67
2022/08/16 01:58:25;0.00;0.00;0.62;0.00;0.00;0.62;8.53;7.63;;;28.00;40.60;;;;;;2265573;61;20436;-64
2022/08/16 02:01:10;0.00;0.00;0.62;0.00;0.00;0.62;7.00;6.30;;;28.00;40.60;;;;;;2265894;61;20365;-65
2022/08/16 02:03:56;0.00;0.00;0.62;0.00;0.00;0.62;7.23;6.13;;;28.00;40.50;;;;;;2265827;61;20469;-63
2022/08/16 02:06:42;0.00;0.00;0.62;0.00;0.00;0.62;7.43;6.83;;;28.00;40.50;;;;;;2264970;61;20392;-65
2022/08/16 02:09:26;0.00;0.00;0.62;0.00;0.00;0.62;7.07;6.47;;;28.00;40.50;;;;;;2266030;61;20361;-63
2022/08/16 02:12:11;0.00;0.00;0.62;0.00;0.00;0.62;7.67;6.10;;;28.00;40.50;;;;;;2265518;61;20753;-64
2022/08/16 02:14:58;0.00;0.00;0.62;0.00;0.00;0.62;6.77;6.03;;;28.00;40.50;;;;;;2266040;61;20388;-64
2022/08/16 02:17:43;0.00;0.00;0.62;0.00;0.00;0.62;6.73;5.93;;;28.00;41.30;;;;;;2265297;61;20594;-65
2022/08/16 02:20:36;0.00;0.00;0.62;0.00;0.00;0.62;6.20;5.47;;;28.10;40.60;;;;;;2265522;61;20641;-61
2022/08/16 02:23:21;0.00;0.00;0.62;0.00;0.00;0.62;7.07;6.20;;;28.10;40.60;;;;;;2266187;61;20511;-66
2022/08/16 02:26:07;0.00;0.00;0.62;0.00;0.00;0.62;7.90;7.30;;;28.20;40.60;;;;;;2265777;61;20635;-65
2022/08/16 02:28:53;0.00;0.00;0.62;0.00;0.00;0.62;7.10;6.50;;;28.20;40.40;;;;;;2265480;61;20471;-64
2022/08/16 02:31:39;0.00;0.00;0.62;0.00;0.00;0.62;8.40;7.67;;;28.20;40.20;;;;;;2265672;61;20368;-64
2022/08/16 02:34:25;0.00;0.00;0.62;0.00;0.00;0.62;8.07;7.33;;;28.20;40.10;;;;;;2266031;61;20365;-64
2022/08/16 02:37:11;0.00;0.00;0.62;0.00;0.00;0.62;8.47;7.23;;;28.20;40.00;;;;;;2265849;61;20394;-62
2022/08/16 02:39:56;0.00;0.00;0.62;0.00;0.00;0.62;7.07;6.37;;;28.20;39.90;;;;;;2265375;61;20646;-65
2022/08/16 02:42:41;0.00;0.00;0.62;0.00;0.00;0.62;7.00;6.37;;;28.20;39.90;;;;;;2265326;61;20760;-64
2022/08/16 02:45:27;0.00;0.00;0.62;0.00;0.00;0.62;7.47;6.70;;;28.20;39.90;;;;;;2265527;61;20380;-62
2022/08/16 02:48:13;0.00;0.00;0.62;0.00;0.00;0.62;6.67;6.03;;;28.20;39.90;;;;;;2265854;61;20576;-64
2022/08/16 02:51:00;0.00;0.00;0.62;0.00;0.00;0.62;7.13;6.47;;;28.20;39.90;;;;;;2264904;61;20381;-66
2022/08/16 02:53:47;0.00;0.00;0.62;0.00;0.00;0.62;9.47;6.73;;;28.20;40.00;;;;;;2265620;61;20395;-65
2022/08/16 02:56:32;0.00;0.00;0.62;0.00;0.00;0.62;8.60;6.53;;;28.20;40.00;;;;;;2265468;61;20364;-63
2022/08/16 02:59:17;0.00;0.00;0.62;0.00;0.00;0.62;6.90;5.90;;;28.20;40.00;;;;;;2265603;61;20388;-65
2022/08/16 03:02:02;0.00;0.00;0.62;0.00;0.00;0.62;6.97;6.33;;;28.20;40.00;;;;;;2265358;61;20388;-64
2022/08/16 03:04:50;0.00;0.00;0.62;0.00;0.00;0.62;6.93;6.30;;;28.30;40.00;;;;;;2265298;61;20361;-63
2022/08/16 03:07:35;0.00;0.00;0.62;0.00;0.00;0.62;6.23;5.63;;;28.30;40.00;;;;;;2265212;61;20373;-63
2022/08/16 03:10:20;0.00;0.00;0.62;0.00;0.00;0.62;6.23;5.63;;;28.30;40.00;;;;;;2265374;61;20407;-63
2022/08/16 03:13:06;0.00;0.00;0.62;0.00;0.00;0.62;5.47;5.00;;;28.40;40.00;;;;;;2264812;61;21064;-64
2022/08/16 03:15:51;0.00;0.00;0.62;0.00;0.00;0.62;6.40;5.90;;;28.40;39.90;;;;;;2265497;61;20364;-65
2022/08/16 03:18:37;0.00;0.00;0.62;0.00;0.00;0.62;5.73;5.23;;;28.50;39.90;;;;;;2265414;61;20392;-66
2022/08/16 03:21:24;0.00;0.00;0.62;0.00;0.00;0.62;5.80;5.30;;;28.50;39.80;;;;;;2265210;61;20365;-63
2022/08/16 03:24:09;0.00;0.00;0.62;0.00;0.00;0.62;5.60;5.00;;;28.50;39.90;;;;;;2265282;61;20472;-65
2022/08/16 03:26:54;0.00;0.00;0.62;0.00;0.00;0.62;6.50;5.90;;;28.60;39.80;;;;;;2265480;61;20388;-63
2022/08/16 03:29:39;0.00;0.00;0.62;0.00;0.00;0.62;6.57;6.00;;;28.60;39.70;;;;;;2265318;61;20372;-63
2022/08/16 03:32:24;0.00;0.00;0.62;0.00;0.00;0.62;6.97;6.23;;;28.70;39.70;;;;;;2265553;61;20379;-65
2022/08/16 03:35:09;0.00;0.00;0.62;0.00;0.00;0.62;6.73;6.13;;;28.70;39.60;;;;;;2264887;61;20360;-64
2022/08/16 03:38:00;0.00;0.00;0.62;0.00;0.00;0.62;7.10;6.50;;;28.70;39.60;;;;;;2265977;61;20416;-65
2022/08/16 03:40:47;0.00;0.00;0.62;0.00;0.00;0.62;7.73;6.93;;;28.70;39.50;;;;;;2265570;61;20397;-64
2022/08/16 03:43:32;0.00;0.00;0.62;0.00;0.00;0.62;7.87;6.90;;;28.80;39.30;;;;;;2265236;61;20396;-66
2022/08/16 03:46:19;0.00;0.00;0.62;0.00;0.00;0.62;7.03;6.43;;;28.70;38.80;;;;;;2265293;61;20361;-65
2022/08/16 03:49:08;0.00;0.00;0.62;0.00;0.00;0.62;7.23;6.43;;;28.70;38.60;;;;;;2265015;61;20385;-66
2022/08/16 03:51:53;0.00;0.00;0.62;0.00;0.00;0.62;7.00;6.30;;;28.60;38.50;;;;;;2265618;61;20416;-62
2022/08/16 03:54:49;0.00;0.00;0.62;0.00;0.00;0.62;6.90;6.23;;;28.60;38.60;;;;;;2265201;61;20361;-64
2022/08/16 03:57:34;0.00;0.00;0.62;0.00;0.00;0.62;6.67;6.00;;;28.60;38.60;;;;;;2265044;61;20369;-66
2022/08/16 04:00:24;0.00;0.00;0.62;0.00;0.00;0.62;7.30;6.47;;;28.60;38.70;;;;;;2265959;61;20416;-64
2022/08/16 04:03:09;0.00;0.00;0.62;0.00;0.00;0.62;6.70;5.80;;;28.50;38.60;;;;;;2265309;61;20373;-63
2022/08/16 04:05:58;0.00;0.00;0.62;0.00;0.00;0.62;6.17;5.57;;;28.60;38.70;;;;;;2265056;61;20416;-64
2022/08/16 04:08:43;0.00;0.00;0.62;0.00;0.00;0.62;5.10;4.70;;;28.50;38.70;;;;;;2265442;61;20465;-63
2022/08/16 04:11:29;0.00;0.00;0.62;0.00;0.00;0.62;7.53;6.70;;;28.60;38.90;;;;;;2265499;61;20376;-64
2022/08/16 04:14:14;0.00;0.00;0.62;0.00;0.00;0.62;7.70;7.10;;;28.60;38.90;;;;;;2262357;61;20457;-62
2022/08/16 04:17:01;0.00;0.00;0.62;0.00;0.00;0.62;10.23;7.93;;;28.60;38.80;;;;;;2265066;61;20630;-62
2022/08/16 04:19:53;0.00;0.00;0.62;0.00;0.00;0.62;8.43;7.63;;;28.70;38.70;;;;;;2262118;61;20420;-67
2022/08/16 04:22:38;0.00;0.00;0.62;0.00;0.00;0.62;7.50;6.90;;;28.60;38.60;;;;;;2265780;61;20392;-65
2022/08/16 04:25:23;0.00;0.00;0.62;0.00;0.00;0.62;7.07;6.43;;;28.70;38.60;;;;;;2265245;61;20429;-62
2022/08/16 04:28:10;0.00;0.00;0.62;0.00;0.00;0.62;6.77;6.10;;;28.70;38.60;;;;;;2265099;61;20717;-64
2022/08/16 04:30:55;0.00;0.00;0.62;0.00;0.00;0.62;6.37;5.77;;;28.70;38.60;;;;;;2265051;61;20578;-66
2022/08/16 04:33:41;0.00;0.00;0.62;0.00;0.00;0.62;5.83;5.30;;;28.70;38.60;;;;;;2264695;61;20745;-65
2022/08/16 04:36:26;0.00;0.00;0.62;0.00;0.00;0.62;6.70;6.10;;;28.80;39.40;;;;;;2265149;61;20589;-65
2022/08/16 04:39:11;0.00;0.00;0.62;0.00;0.00;0.62;5.90;5.40;;;28.80;38.70;;;;;;2265450;61;20654;-64
2022/08/16 04:41:57;0.00;0.00;0.62;0.00;0.00;0.62;6.40;5.77;;;28.90;38.70;;;;;;2264671;61;20377;-65
2022/08/16 04:44:43;0.00;0.00;0.62;0.00;0.00;0.62;6.00;5.40;;;28.90;38.70;;;;;;2265390;61;20424;-64
2022/08/16 04:47:30;0.00;0.00;0.62;0.00;0.00;0.62;7.30;5.53;;;28.90;38.70;;;;;;2264954;61;20365;-64
2022/08/16 04:50:21;0.00;0.00;0.62;0.00;0.00;0.62;11.20;7.93;;;28.90;38.60;;;;;;2264865;61;20368;-65
2022/08/16 04:53:25;0.00;0.00;0.62;0.00;0.00;0.62;8.33;7.53;;;29.00;38.60;;;;;;2265327;61;20427;-65
2022/08/16 04:56:10;0.00;0.00;0.62;0.00;0.00;0.62;7.80;7.00;;;29.00;38.40;;;;;;2264988;61;20437;-63
2022/08/16 04:58:56;0.00;0.00;0.62;0.00;0.00;0.62;8.43;7.43;;;28.90;38.20;;;;;;2265783;61;20380;-65
2022/08/16 05:01:42;0.00;0.00;0.62;0.00;0.00;0.62;13.93;9.03;;;28.90;38.20;;;;;;2265345;61;20619;-64
2022/08/16 05:04:27;0.00;0.00;0.62;0.00;0.00;0.62;18.00;8.33;;;28.90;38.00;;;;;;2264980;61;20460;-65
2022/08/16 05:07:13;0.00;0.00;0.62;0.00;0.00;0.62;15.10;8.53;;;28.90;38.00;;;;;;2265334;61;20365;-63
2022/08/16 05:10:19;0.00;0.00;0.62;0.00;0.00;0.62;13.13;7.80;;;28.90;37.90;;;;;;2264873;61;20400;-67
2022/08/16 05:13:05;0.00;0.00;0.62;0.00;0.00;0.62;8.50;6.60;;;28.90;38.00;;;;;;2264931;61;20408;-64
2022/08/16 05:15:51;0.00;0.00;0.62;0.00;0.00;0.62;8.47;6.77;;;28.80;38.00;;;;;;2264870;61;20581;-63
2022/08/16 05:18:40;0.00;0.00;0.62;0.00;0.00;0.62;9.67;7.40;;;28.80;38.00;;;;;;2264419;61;20389;-64
2022/08/16 05:21:27;0.00;0.00;0.62;0.00;0.00;0.62;12.20;7.50;;;28.90;38.20;;;;;;2265403;61;20436;-65
2022/08/16 05:24:14;0.00;0.00;0.62;0.00;0.00;0.62;10.77;7.37;;;28.90;38.10;;;;;;2265009;61;20358;-66
2022/08/16 05:26:59;0.00;0.00;0.62;0.00;0.00;0.62;11.23;7.53;;;28.90;38.00;;;;;;2264578;61;20577;-67
2022/08/16 05:29:47;0.00;0.00;0.62;0.00;0.00;0.62;7.53;6.10;;;28.90;38.60;;;;;;2265215;61;20646;-65
2022/08/16 05:32:35;0.00;0.00;0.62;0.00;0.00;0.62;8.13;6.67;;;28.80;38.00;;;;;;2264683;61;20400;-65
2022/08/16 05:35:23;0.00;0.00;0.62;0.00;0.00;0.62;7.00;5.80;;;28.90;38.10;;;;;;2265229;61;20389;-66
2022/08/16 05:38:27;0.00;0.00;0.62;0.00;0.00;0.62;7.23;6.53;;;28.90;38.10;;;;;;2265375;61;20405;-64
2022/08/16 05:41:15;0.00;0.00;0.62;0.00;0.00;0.62;9.03;6.50;;;28.90;38.10;;;;;;2264583;61;20396;-64
2022/08/16 05:44:03;0.00;0.00;0.62;0.00;0.00;0.62;9.57;7.07;;;29.00;38.10;;;;;;2265319;61;20404;-63
2022/08/16 05:46:57;0.00;0.00;0.62;0.00;0.00;0.62;8.97;6.97;;;29.00;38.10;;;;;;2265602;61;20365;-65
2022/08/16 05:49:42;0.00;0.00;0.62;0.00;0.00;0.62;7.67;6.90;;;29.00;38.00;;;;;;2265582;61;20479;-66
2022/08/16 05:52:30;0.00;0.00;0.62;0.00;0.00;0.62;7.10;6.27;;;29.00;37.70;;;;;;2265360;61;20629;-61
2022/08/16 05:55:16;0.00;0.00;0.62;0.00;0.00;0.62;8.30;7.37;;;29.00;37.60;;;;;;2265617;61;20365;-63
2022/08/16 05:58:01;0.00;0.00;0.62;0.00;0.00;0.62;8.50;6.40;;;29.00;37.50;;;;;;2265952;61;20361;-64
2022/08/16 06:00:46;0.00;0.00;0.62;0.00;0.00;0.62;8.57;7.00;;;29.00;37.40;;;;;;2265495;61;20609;-62
2022/08/16 06:03:31;0.00;0.00;0.62;0.00;0.00;0.62;7.43;6.33;;;28.90;37.30;;;;;;2265198;61;20427;-65
2022/08/16 06:06:19;0.00;0.00;0.62;0.00;0.00;0.62;7.63;6.87;;;28.90;37.40;;;;;;2265767;61;20366;-66
2022/08/16 06:09:05;0.00;0.00;0.62;0.00;0.00;0.62;7.83;7.03;;;28.90;37.60;;;;;;2265536;61;20345;-63
2022/08/16 06:11:51;0.00;0.00;0.62;0.00;0.00;0.62;7.70;6.77;;;28.90;37.60;;;;;;2265461;61;20507;-64
2022/08/16 06:14:36;0.00;0.00;0.62;0.00;0.00;0.62;7.40;6.70;;;28.80;37.60;;;;;;2265631;61;20511;-63
2022/08/16 06:17:22;0.00;0.00;0.62;0.00;0.00;0.62;6.90;6.23;;;28.80;37.60;;;;;;2264922;61;20361;-64
2022/08/16 06:20:10;0.00;0.00;0.62;0.00;0.00;0.62;6.60;6.00;;;28.80;37.60;;;;;;2265203;61;20761;-64
2022/08/16 06:22:56;0.00;0.00;0.62;0.00;0.00;0.62;6.80;6.10;;;28.70;37.50;;;;;;2265461;61;20492;-63
2022/08/16 06:25:43;0.00;0.00;0.62;0.00;0.00;0.62;6.97;6.13;;;28.70;37.50;;;;;;2264760;61;20438;-67
2022/08/16 06:28:28;0.00;0.00;0.62;0.00;0.00;0.62;6.90;6.30;;;28.70;37.50;;;;;;2265423;61;20362;-63
2022/08/16 06:31:14;0.00;0.00;0.62;0.00;0.00;0.62;7.43;6.73;;;28.60;37.60;;;;;;2265565;61;20396;-62
2022/08/16 06:34:03;0.00;0.00;0.62;0.00;0.00;0.62;7.47;6.67;;;28.60;37.60;;;;;;2265213;61;20365;-64
2022/08/16 06:36:52;0.00;0.00;0.62;0.00;0.00;0.62;6.53;5.90;;;28.60;37.60;;;;;;2265855;61;20361;-63
2022/08/16 06:39:40;0.00;0.00;0.62;0.00;0.00;0.62;7.97;6.80;;;28.60;37.60;;;;;;2265162;61;20765;-63
2022/08/16 06:42:29;0.00;0.00;0.62;0.00;0.00;0.62;8.23;5.83;;;28.50;37.50;;;;;;2265415;61;20787;-63
2022/08/16 06:45:21;0.00;0.00;0.62;0.00;0.00;0.62;6.83;5.20;;;28.50;37.60;;;;;;2265603;61;20361;-62
2022/08/16 06:48:09;0.00;0.00;0.62;0.00;0.00;0.62;6.73;6.07;;;28.50;37.60;;;;;;2264807;61;20399;-63
2022/08/16 06:50:57;0.00;0.00;0.62;0.00;0.00;0.62;9.63;5.80;;;28.50;37.70;;;;;;2265505;61;20361;-62
2022/08/16 06:53:42;0.00;0.00;0.62;0.00;0.00;0.62;7.63;5.87;;;28.50;37.60;;;;;;2265178;61;20467;-61
2022/08/16 06:56:27;0.00;0.00;0.62;0.00;0.00;0.62;6.63;5.90;;;28.50;37.50;;;;;;2264875;61;20594;-67
2022/08/16 06:59:23;0.00;0.00;0.62;0.00;0.00;0.62;8.53;6.37;;;28.50;37.60;;;;;;2265622;61;20688;-62
2022/08/16 07:02:08;0.00;0.00;0.62;0.00;0.00;0.62;10.20;8.10;;;28.50;37.70;;;;;;2264863;61;20385;-61
2022/08/16 07:04:53;0.00;0.00;0.62;0.00;0.00;0.62;9.33;8.00;;;28.50;37.70;;;;;;2262690;61;20357;-66
2022/08/16 07:07:39;0.00;0.00;0.62;0.00;0.00;0.62;14.80;7.53;;;28.50;37.70;;;;;;2265482;61;20381;-63
2022/08/16 07:10:26;0.00;0.00;0.62;0.00;0.00;0.62;7.33;6.50;;;28.50;37.60;;;;;;2264494;61;20361;-64
2022/08/16 07:13:11;0.00;0.00;0.62;0.00;0.00;0.62;7.20;6.13;;;28.50;37.60;;;;;;2265492;61;20393;-66
2022/08/16 07:15:59;0.00;0.00;0.62;0.00;0.00;0.62;6.47;5.87;;;28.50;37.50;;;;;;2264920;61;20361;-65
2022/08/16 07:18:47;0.00;0.00;0.62;0.00;0.00;0.62;5.60;5.10;;;28.50;37.40;;;;;;2265044;61;20384;-66
2022/08/16 07:21:35;0.00;0.00;0.62;0.00;0.00;0.62;5.53;4.60;;;28.60;37.40;;;;;;2265445;61;20422;-64
2022/08/16 07:24:20;0.00;0.00;0.62;0.00;0.00;0.62;5.73;5.00;;;28.60;37.30;;;;;;2264856;61;20698;-65
2022/08/16 07:27:07;0.00;0.00;0.62;0.00;0.00;0.62;6.97;5.13;;;28.70;37.20;;;;;;2265404;61;20357;-62
2022/08/16 07:29:51;0.00;0.00;0.62;0.00;0.00;0.62;6.67;4.50;;;28.70;37.10;;;;;;2266249;61;20725;-64
2022/08/16 07:32:38;0.00;0.00;0.62;0.00;0.00;0.62;5.63;5.17;;;28.70;37.00;;;;;;2264597;61;20395;-65
2022/08/16 07:35:24;0.00;0.00;0.62;0.00;0.00;0.62;5.30;4.80;;;28.70;36.90;;;;;;2265497;61;20476;-64
2022/08/16 07:38:10;0.00;0.00;0.62;0.00;0.00;0.62;9.93;5.33;;;28.70;36.90;;;;;;2264961;61;20729;-64
2022/08/16 07:41:07;0.00;0.00;0.62;0.00;0.00;0.62;5.10;4.70;;;28.70;36.90;;;;;;2265086;61;20388;-65
2022/08/16 07:43:52;0.00;0.00;0.62;0.00;0.00;0.62;4.47;4.07;;;28.80;36.90;;;;;;2265469;61;20361;-66
2022/08/16 07:46:38;0.00;0.00;0.62;0.00;0.00;0.62;6.37;4.43;;;28.80;36.80;;;;;;2264374;61;20759;-65
2022/08/16 07:49:30;0.00;0.00;0.62;0.00;0.00;0.62;5.33;4.93;;;28.80;36.80;;;;;;2265336;61;20404;-65
2022/08/16 07:52:16;0.00;0.00;0.62;0.00;0.00;0.62;4.90;4.40;;;28.80;36.80;;;;;;2265223;61;20572;-67
2022/08/16 07:55:00;0.00;0.00;0.62;0.00;0.00;0.62;5.27;4.60;;;28.80;36.70;;;;;;2264584;61;20360;-63
2022/08/16 07:57:45;0.00;0.00;0.62;0.00;0.00;0.62;5.00;4.60;;;28.80;36.70;;;;;;2265879;61;20425;-65
2022/08/16 08:00:30;0.00;0.00;0.62;0.00;0.00;0.62;5.33;4.43;;;28.80;36.60;;;;;;2264843;61;20389;-63
2022/08/16 08:03:15;0.00;0.00;0.62;0.00;0.00;0.62;5.93;4.60;;;28.90;36.70;;;;;;2265489;61;20585;-63
2022/08/16 08:06:02;0.00;0.00;0.62;0.00;0.00;0.62;6.60;5.30;;;28.90;36.60;;;;;;2265263;61;20364;-63
2022/08/16 08:08:48;0.00;0.00;0.62;0.00;0.00;0.62;6.20;5.20;;;28.90;36.50;;;;;;2264387;61;20361;-66
2022/08/16 08:11:33;0.00;0.00;0.62;0.00;0.00;0.62;4.70;4.30;;;28.90;36.50;;;;;;2265611;61;20377;-64
2022/08/16 08:14:20;0.00;0.00;0.62;0.00;0.00;0.62;5.47;4.97;;;28.90;36.40;;;;;;2265406;61;20776;-63
2022/08/16 08:17:06;0.00;0.00;0.62;0.00;0.00;0.62;4.70;4.07;;;28.90;36.40;;;;;;2264683;61;20369;-65
2022/08/16 08:19:52;0.00;0.00;0.62;0.00;0.00;0.62;4.70;4.30;;;29.00;36.40;;;;;;2265220;61;20696;-65
2022/08/16 08:22:38;0.00;0.00;0.62;0.00;0.00;0.62;5.77;5.00;;;28.90;36.40;;;;;;2264867;61;20384;-64
2022/08/16 08:25:28;0.00;0.00;0.62;0.00;0.00;0.62;5.33;4.83;;;29.00;36.30;;;;;;2265514;61;20353;-63
2022/08/16 08:28:13;0.00;0.00;0.62;0.00;0.00;0.62;5.93;4.97;;;29.00;36.30;;;;;;2265944;61;20403;-65
2022/08/16 08:31:02;0.00;0.00;0.62;0.00;0.00;0.62;5.33;4.90;;;29.00;36.10;;;;;;2264632;61;20357;-63
2022/08/16 08:33:48;0.00;0.00;0.62;0.00;0.00;0.62;6.47;4.87;;;29.00;36.00;;;;;;2265606;61;20434;-65
2022/08/16 08:36:35;0.00;0.00;0.62;0.00;0.00;0.62;4.77;4.37;;;29.10;36.00;;;;;;2265403;61;20571;-64
2022/08/16 08:39:41;0.00;0.00;0.62;0.00;0.00;0.62;5.40;4.97;;;29.00;35.90;;;;;;2264977;61;20419;-65
2022/08/16 08:42:27;0.00;0.00;0.62;0.00;0.00;0.62;4.90;4.50;;;29.10;36.00;;;;;;2265518;61;20377;-65
2022/08/16 08:45:14;0.00;0.00;0.62;0.00;0.00;0.62;5.57;5.03;;;29.10;35.80;;;;;;2262376;61;20384;-64
2022/08/16 08:47:59;0.00;0.00;0.62;0.00;0.00;0.62;5.40;4.70;;;29.10;35.80;;;;;;2265349;61;20395;-63
2022/08/16 08:50:48;0.00;0.00;0.62;0.00;0.00;0.62;4.90;4.40;;;29.10;35.80;;;;;;2265342;61;20353;-64
2022/08/16 08:53:34;0.00;0.00;0.62;0.00;0.00;0.62;5.47;4.97;;;29.20;35.80;;;;;;2264811;61;20377;-66
2022/08/16 08:56:21;0.00;0.00;0.62;0.00;0.00;0.62;5.27;4.77;;;29.20;35.80;;;;;;2265662;61;20361;-67
2022/08/16 08:59:07;0.00;0.00;0.62;0.00;0.00;0.62;5.50;5.00;;;29.20;35.70;;;;;;2265298;61;20384;-65
2022/08/16 09:01:58;0.00;0.00;0.62;0.00;0.00;0.62;5.77;5.20;;;29.20;35.60;;;;;;2264826;61;20419;-65
2022/08/16 09:04:58;0.00;0.00;0.62;0.00;0.00;0.62;5.77;5.27;;;29.20;35.50;;;;;;2265392;61;20426;-65
2022/08/16 09:07:44;0.00;0.00;0.62;0.00;0.00;0.62;6.17;4.83;;;29.30;35.60;;;;;;2264866;61;20361;-65
2022/08/16 09:10:30;0.00;0.00;0.62;0.00;0.00;0.62;5.10;4.70;;;29.30;35.50;;;;;;2265531;61;20705;-63
2022/08/16 09:13:16;0.00;0.00;0.62;0.00;0.00;0.62;5.20;4.70;;;29.30;35.40;;;;;;2265254;61;20431;-65
2022/08/16 09:16:06;0.00;0.00;0.62;0.00;0.00;0.62;5.50;5.10;;;29.30;35.30;;;;;;2264342;61;20358;-64
2022/08/16 09:18:54;0.00;0.00;0.62;0.00;0.00;0.62;4.90;4.50;;;29.30;35.10;;;;;;2265098;61;20376;-64
2022/08/16 09:21:40;0.00;0.00;0.62;0.00;0.00;0.62;7.60;5.13;;;29.40;35.10;;;;;;2265731;61;20357;-66
2022/08/16 09:24:24;0.00;0.00;0.62;0.00;0.00;0.62;4.90;4.50;;;29.40;34.90;;;;;;2265502;61;20357;-62
2022/08/16 09:27:09;0.00;0.00;0.62;0.00;0.00;0.62;5.40;4.90;;;29.40;34.90;;;;;;2265854;61;20352;-66
2022/08/16 09:29:55;0.00;0.00;0.62;0.00;0.00;0.62;5.03;4.63;;;29.40;34.90;;;;;;2265813;61;20709;-63
2022/08/16 09:32:40;0.00;0.00;0.62;0.00;0.00;0.62;5.43;4.50;;;29.50;35.00;;;;;;2266111;61;20451;-63
2022/08/16 09:35:25;0.00;0.00;0.62;0.00;0.00;0.62;5.73;4.57;;;29.50;34.90;;;;;;2266253;61;20436;-63
2022/08/16 09:38:12;0.00;0.00;0.62;0.00;0.00;0.62;4.90;4.47;;;29.50;34.80;;;;;;2264973;61;20400;-63
2022/08/16 09:40:57;0.00;0.00;0.62;0.00;0.00;0.62;4.60;4.20;;;29.50;34.60;;;;;;2266159;61;20361;-63
2022/08/16 09:43:43;0.00;0.00;0.62;0.00;0.00;0.62;4.53;4.13;;;29.60;34.50;;;;;;2266236;61;20377;-60
2022/08/16 09:46:30;0.00;0.00;0.62;0.00;0.00;0.62;4.93;4.50;;;29.60;34.50;;;;;;2265679;61;20752;-65
2022/08/16 09:49:15;0.00;0.00;0.62;0.00;0.00;0.62;5.03;4.57;;;29.60;34.60;;;;;;2266146;61;20353;-64
2022/08/16 09:52:00;0.00;0.00;0.62;0.00;0.00;0.62;4.73;4.33;;;29.60;34.60;;;;;;2265622;61;20686;-66
2022/08/16 09:54:45;0.00;0.00;0.62;0.00;0.00;0.62;4.57;4.17;;;29.70;34.70;;;;;;2266036;61;20733;-70
2022/08/16 09:57:29;0.00;0.00;0.62;0.00;0.00;0.62;4.50;4.07;;;29.70;34.70;;;;;;2266371;61;20441;-66
2022/08/16 10:00:17;0.00;0.00;0.62;0.00;0.00;0.62;4.80;4.40;;;29.70;34.80;;;;;;2265308;61;20408;-72
2022/08/16 10:03:04;0.00;0.00;0.62;0.00;0.00;0.62;3.97;3.60;;;29.70;34.60;;;;;;2266414;61;20484;-74
2022/08/16 10:05:50;0.00;0.00;0.62;0.00;0.00;0.62;4.40;4.03;;;29.80;34.80;;;;;;2265776;61;20479;-67
2022/08/16 10:08:34;0.00;0.00;0.62;0.00;0.00;0.62;4.33;4.03;;;29.80;34.90;;;;;;2265615;61;20951;-72
2022/08/16 10:14:25;0.00;0.00;0.62;0.00;0.00;0.62;5.23;4.10;;;29.90;34.80;;;;;;2265633;61;20385;-62
2022/08/16 10:17:09;0.00;0.00;0.62;0.00;0.00;0.62;9.83;4.57;;;30.00;34.70;;;;;;2266078;61;20572;-70
2022/08/16 10:19:56;0.00;0.00;0.62;0.00;0.00;0.62;4.17;3.87;;;30.00;34.80;;;;;;2266038;61;20821;-68
2022/08/16 10:22:41;0.00;0.00;0.62;0.00;0.00;0.62;5.33;4.83;;;30.00;34.70;;;;;;2265456;61;20377;-69
2022/08/16 10:25:26;0.00;0.00;0.62;0.00;0.00;0.62;5.20;4.60;;;30.00;34.70;;;;;;2266151;61;20365;-70
2022/08/16 10:28:11;0.00;0.00;0.62;0.00;0.00;0.62;5.53;4.57;;;30.10;34.60;;;;;;2266091;61;20353;-65
2022/08/16 10:30:58;0.00;0.00;0.62;0.00;0.00;0.62;4.93;4.47;;;30.10;34.70;;;;;;2265373;61;20369;-62
2022/08/16 10:33:43;0.00;0.00;0.62;0.00;0.00;0.62;4.57;4.17;;;30.10;34.60;;;;;;2265957;61;20408;-66
2022/08/16 10:36:30;0.00;0.00;0.62;0.00;0.00;0.62;5.70;5.17;;;30.20;34.60;;;;;;2265599;61;20567;-72
2022/08/16 10:39:15;0.00;0.00;0.62;0.00;0.00;0.62;4.70;4.30;;;30.20;34.50;;;;;;2266040;61;20388;-73
2022/08/16 10:41:59;0.00;0.00;0.62;0.00;0.00;0.62;5.23;4.73;;;30.30;34.60;;;;;;2265604;61;20449;-63
2022/08/16 10:44:44;0.00;0.00;0.62;0.00;0.00;0.62;4.20;3.80;;;30.30;34.60;;;;;;2265388;61;20369;-65
2022/08/16 10:47:29;0.00;0.00;0.62;0.00;0.00;0.62;4.90;4.50;;;30.30;34.50;;;;;;2265526;61;20456;-71
2022/08/16 10:50:14;0.00;0.00;0.62;0.00;0.00;0.62;5.10;4.60;;;30.40;34.40;;;;;;2265922;61;20334;-70
2022/08/16 10:53:05;0.00;0.00;0.62;0.00;0.00;0.62;6.00;5.50;;;30.40;34.20;;;;;;2265349;61;20487;-71
2022/08/16 10:55:50;0.00;0.00;0.62;0.00;0.00;0.62;4.70;4.30;;;30.40;34.20;;;;;;2265441;61;20353;-73
2022/08/16 10:58:35;0.00;0.00;0.62;0.00;0.00;0.62;5.13;4.73;;;30.50;34.20;;;;;;2265543;61;20369;-71
2022/08/16 11:01:20;0.00;0.00;0.62;0.00;0.00;0.62;4.93;4.47;;;30.50;34.20;;;;;;2265870;61;20353;-73